Aérodrome :
LOGIN :

S'inscrire | Disclaimer

   EN    FR    IT 

 










Légende :    VFR   VFR Marginal   IFR   IFR Intensif   IFR Très Intensif
Visi : 
Plafond : 
>= 8 km
>= 3000ft
5 à 8 km
1000 à 3000 ft
1500m à 5 km
500 à 1000 ft
800 à 1500m
200 à 500 ft
< 800m
< 200 ft
Symboles :   Orages  Brouillard  Fortes neiges  Fortes précipitations  Vent > 20 kt
SIGMETs :   Divers  Orages  Givrage  Turbulence  Onde Orograph.  Cendres Volcan.






- Altitude de l'aérodrome : 17 ft
- Code IATA : MPL


LFMT - Montpellier Méditerranée

DERNIER METAR :
  • 291300Z AUTO 20012KT CAVOK 27/16 Q1012 NOSIG

METARs EXPIRÉS :
  • 291230Z AUTO 19011KT CAVOK 28/15 Q1012 NOSIG
  • 291200Z AUTO 19013KT CAVOK 29/13 Q1013 NOSIG
  • 291130Z AUTO 19011KT CAVOK 28/14 Q1013 NOSIG
  • 291100Z AUTO 20011KT CAVOK 28/14 Q1013 NOSIG
  • 291030Z AUTO 20010KT CAVOK 28/13 Q1013 NOSIG

TAF TAF LFMT
Valide du 29 à 09h jusqu'au 30 à 09h UTC


290800Z 2909/3009 VRB04KT CAVOK
BECMG 2909/2911 20012KT
BECMG 2921/2923 VRB05KT
TEMPO 3000/3006 BKN010
ATIS : +33 4 67 13 11 70



MET'MAP, la Météo Aéronautique d'un coup d'oeil ! - Copyright ORBIFLY Décembre 2007 - Disclaimer

ORBIFLY MET'MAP TEAM :

Programmation & Développement : Alexandra Zaïnal
Sur une idée originale de : Baudouin d'Aumeries
Soutien technique & logistique : Manuel Goepfert
Assistance : Marc-Olivier Méhu




SOURCES & CREDITS :

   NOAA